GABS/BKO METAR and TAF weather

Enter ICAO airport designator
Station Type Date Time Source
GABS METAR 2019/12/08 14:00 UTC NOAA

GABS 081400Z 06006KT 020V100 CAVOK 33/01 Q1013 NOSIG


Station Type Date Time Source
GABS Decoded METAR 2019/12/08 14:00 UTC NOAA

Bamako / Senou, Mali (GABS) 12-32N 007-57W 381M
Dec 08, 2019 - 09:00 AM EST / 2019.12.08 1400 UTC
Wind: from the ENE (060 degrees) at 7 MPH (6 KT) (direction variable):0
Visibility: greater than 7 mile(s):0
Temperature: 91 F (33 C)
Dew Point: 33 F (1 C)
Relative Humidity: 13%
Pressure (altimeter): 29.91 in. Hg (1013 hPa)
ob: GABS 081400Z 06006KT 020V100 CAVOK 33/01 Q1013 NOSIG
cycle: 14

Station Type Date Time Source
GABS TAF 2019/12/08 12:09 UTC NOAA

TAF TAF GABS 081100Z 0812/0918 06010KT 8000 NSC PROB40
TEMPO 0812/0816 06015G25KT PROB30
TEMPO 0906/0910 4000 HZ PROB40
TEMPO 0908/0915 08015G25KT

Example: see airport list